Time;durP1;ratioP1;P1;durP2;ratioP2;P2;SDS_P1;SDS_P2;PMS_P1;PMS_P2;Temp;Humidity;BMP_temperature;BMP_pressure;BME280_temperature;BME280_humidity;BME280_pressure;Samples;Min_cycle;Max_cycle;Signal;HPM_P1;HPM_P2
2022/03/11 00:01:16;;;;;;;8.88;5.75;;;;;;;;;;8184103;28;20038;-59
2022/03/11 00:05:16;;;;;;;14.65;7.72;;;;;;;;;;8182668;28;20038;-59
2022/03/11 00:09:17;;;;;;;11.18;6.00;;;;;;;;;;8183757;28;20035;-59
2022/03/11 00:13:17;;;;;;;11.00;6.40;;;;;;;;;;8183495;28;20031;-59
2022/03/11 00:17:17;;;;;;;8.52;5.88;;;;;;;;;;8183206;28;20320;-59
2022/03/11 00:21:18;;;;;;;14.45;5.63;;;;;;;;;;8181410;28;20035;-59
2022/03/11 00:25:19;;;;;;;11.48;5.85;;;;;;;;;;8185854;28;20158;-59
2022/03/11 00:29:19;;;;;;;9.70;5.95;;;;;;;;;;8182572;28;20057;-59
2022/03/11 00:33:19;;;;;;;9.95;5.95;;;;;;;;;;8182284;28;20046;-59
2022/03/11 00:37:19;;;;;;;12.77;6.70;;;;;;;;;;8183826;28;20849;-59
2022/03/11 00:41:19;;;;;;;9.95;6.35;;;;;;;;;;8180141;28;21004;-59
2022/03/11 00:45:19;;;;;;;10.38;5.60;;;;;;;;;;8184491;28;20027;-59
2022/03/11 00:49:20;;;;;;;12.68;6.18;;;;;;;;;;8184533;28;20057;-59
2022/03/11 00:53:20;;;;;;;12.20;6.55;;;;;;;;;;8188463;28;20057;-59
2022/03/11 00:57:20;;;;;;;11.15;6.72;;;;;;;;;;8190842;28;20023;-58
2022/03/11 01:01:20;;;;;;;8.77;5.90;;;;;;;;;;8189417;28;20039;-59
2022/03/11 01:05:24;;;;;;;13.20;5.65;;;;;;;;;;8188741;28;20031;-59
2022/03/11 01:09:24;;;;;;;12.67;6.60;;;;;;;;;;8186655;28;20043;-59
2022/03/11 01:13:24;;;;;;;9.38;5.93;;;;;;;;;;8188319;28;20031;-59
2022/03/11 01:17:24;;;;;;;8.30;5.87;;;;;;;;;;8186159;28;20043;-59
2022/03/11 01:21:25;;;;;;;10.88;5.93;;;;;;;;;;8185598;28;20286;-59
2022/03/11 01:25:25;;;;;;;9.68;6.32;;;;;;;;;;8186455;28;20041;-59
2022/03/11 01:29:25;;;;;;;9.43;6.05;;;;;;;;;;8185031;28;20026;-59
2022/03/11 01:33:25;;;;;;;8.57;5.70;;;;;;;;;;8186150;28;20050;-60
2022/03/11 01:37:25;;;;;;;8.40;5.28;;;;;;;;;;8188204;28;20279;-59
2022/03/11 01:41:26;;;;;;;11.10;5.85;;;;;;;;;;8184643;28;20067;-59
2022/03/11 01:45:26;;;;;;;10.15;5.72;;;;;;;;;;8188724;28;20054;-59
2022/03/11 01:49:26;;;;;;;8.95;5.65;;;;;;;;;;8186646;28;20033;-60
2022/03/11 01:53:26;;;;;;;12.43;6.27;;;;;;;;;;8186134;28;20123;-59
2022/03/11 01:57:26;;;;;;;10.63;5.82;;;;;;;;;;8188103;28;20272;-59
2022/03/11 02:01:27;;;;;;;9.48;5.40;;;;;;;;;;8183423;28;20039;-59
2022/03/11 02:05:28;;;;;;;10.53;5.27;;;;;;;;;;8187254;28;20026;-59
2022/03/11 02:09:28;;;;;;;14.43;5.63;;;;;;;;;;8187297;28;20771;-59
2022/03/11 02:13:40;;;;;;;10.15;5.70;;;;;;;;;;8186679;28;20048;-59
2022/03/11 02:17:40;;;;;;;12.02;6.15;;;;;;;;;;8184811;28;20094;-59
2022/03/11 02:21:43;;;;;;;7.63;5.35;;;;;;;;;;8185467;28;20034;-59
2022/03/11 02:25:43;;;;;;;8.02;5.38;;;;;;;;;;8185276;28;20229;-59
2022/03/11 02:29:43;;;;;;;8.43;4.85;;;;;;;;;;8186476;28;20035;-58
2022/03/11 02:33:43;;;;;;;8.27;5.45;;;;;;;;;;8185514;28;20042;-58
2022/03/11 02:37:44;;;;;;;11.00;5.55;;;;;;;;;;8184983;28;20061;-59
2022/03/11 02:41:47;;;;;;;9.50;4.90;;;;;;;;;;8182466;28;20034;-59
2022/03/11 02:45:47;;;;;;;8.10;5.32;;;;;;;;;;8183966;28;20039;-59
2022/03/11 02:49:48;;;;;;;6.80;4.63;;;;;;;;;;8182908;28;20019;-59
2022/03/11 02:53:48;;;;;;;7.77;5.10;;;;;;;;;;8185753;28;20027;-58
2022/03/11 02:57:48;;;;;;;11.32;5.68;;;;;;;;;;8184632;28;20258;-59
2022/03/11 03:01:48;;;;;;;10.13;5.80;;;;;;;;;;8183050;28;20622;-59
2022/03/11 03:05:48;;;;;;;12.77;5.90;;;;;;;;;;8184951;28;20568;-58
2022/03/11 03:09:49;;;;;;;10.82;6.05;;;;;;;;;;8181813;28;20027;-58
2022/03/11 03:13:49;;;;;;;12.80;6.43;;;;;;;;;;8184761;28;20035;-59
2022/03/11 03:17:49;;;;;;;12.18;6.60;;;;;;;;;;8183629;28;20133;-59
2022/03/11 03:21:49;;;;;;;11.18;6.13;;;;;;;;;;8183682;28;20392;-59
2022/03/11 03:25:49;;;;;;;11.82;7.00;;;;;;;;;;8183181;28;20027;-58
2022/03/11 03:29:49;;;;;;;11.18;6.70;;;;;;;;;;8185052;28;20027;-59
2022/03/11 03:33:50;;;;;;;11.38;7.05;;;;;;;;;;8182032;28;20038;-59
2022/03/11 03:37:50;;;;;;;12.85;7.00;;;;;;;;;;8183530;28;20106;-59
2022/03/11 03:41:51;;;;;;;15.75;7.70;;;;;;;;;;8181774;28;20089;-60
2022/03/11 03:45:51;;;;;;;13.00;7.43;;;;;;;;;;8182328;28;20808;-59
2022/03/11 03:49:51;;;;;;;19.23;8.23;;;;;;;;;;8180787;28;20140;-59
2022/03/11 03:53:51;;;;;;;18.38;8.25;;;;;;;;;;8181870;28;20137;-59
2022/03/11 03:57:51;;;;;;;13.05;7.22;;;;;;;;;;8183231;28;20022;-58
2022/03/11 04:01:52;;;;;;;16.58;8.60;;;;;;;;;;8180756;28;20050;-58
2022/03/11 04:05:52;;;;;;;17.52;9.00;;;;;;;;;;8182444;28;20153;-58
2022/03/11 04:09:52;;;;;;;16.15;8.13;;;;;;;;;;8183194;28;20130;-59
2022/03/11 04:13:53;;;;;;;23.02;10.05;;;;;;;;;;8183772;28;20098;-59
2022/03/11 04:17:53;;;;;;;16.05;8.80;;;;;;;;;;8183174;28;20039;-59
2022/03/11 04:21:53;;;;;;;14.07;7.03;;;;;;;;;;8183100;28;20029;-58
2022/03/11 04:25:54;;;;;;;17.20;8.20;;;;;;;;;;8190393;28;20023;-60
2022/03/11 04:29:54;;;;;;;11.32;6.97;;;;;;;;;;8188250;28;20023;-59
2022/03/11 04:33:55;;;;;;;12.07;7.13;;;;;;;;;;8189264;28;20050;-59
2022/03/11 04:37:55;;;;;;;14.30;6.95;;;;;;;;;;8187675;28;20034;-59
2022/03/11 04:41:56;;;;;;;13.68;7.38;;;;;;;;;;8189242;28;20034;-59
2022/03/11 04:45:56;;;;;;;11.13;7.45;;;;;;;;;;8188204;28;20046;-59
2022/03/11 04:49:57;;;;;;;10.65;6.35;;;;;;;;;;8187299;28;20404;-59
2022/03/11 04:53:58;;;;;;;11.75;7.40;;;;;;;;;;8189057;28;20213;-59
2022/03/11 04:57:59;;;;;;;11.70;7.35;;;;;;;;;;8189901;28;20031;-59
2022/03/11 05:01:59;;;;;;;32.17;11.75;;;;;;;;;;8187803;28;20027;-59
2022/03/11 05:05:59;;;;;;;54.53;17.08;;;;;;;;;;8188434;28;20157;-59
2022/03/11 05:10:00;;;;;;;68.20;22.93;;;;;;;;;;8188095;28;20352;-59
2022/03/11 05:14:00;;;;;;;85.28;26.30;;;;;;;;;;8187953;28;20282;-59
2022/03/11 05:18:00;;;;;;;48.72;16.52;;;;;;;;;;8186033;28;20072;-59
2022/03/11 05:22:00;;;;;;;22.25;9.63;;;;;;;;;;8188114;28;20085;-59
2022/03/11 05:26:02;;;;;;;13.60;8.07;;;;;;;;;;8188382;28;20401;-58
2022/03/11 05:30:04;;;;;;;15.45;7.85;;;;;;;;;;8186140;28;20026;-60
2022/03/11 05:34:04;;;;;;;13.85;7.13;;;;;;;;;;8188213;28;20027;-59
2022/03/11 05:38:04;;;;;;;11.05;7.30;;;;;;;;;;8187543;28;20824;-59
2022/03/11 05:42:05;;;;;;;19.52;7.47;;;;;;;;;;8185950;28;20033;-59
2022/03/11 05:46:05;;;;;;;11.65;6.63;;;;;;;;;;8186728;28;20039;-59
2022/03/11 05:50:06;;;;;;;13.82;7.32;;;;;;;;;;8185566;28;20023;-59
2022/03/11 05:54:06;;;;;;;11.48;7.22;;;;;;;;;;8186422;28;20100;-60
2022/03/11 05:58:07;;;;;;;15.30;8.13;;;;;;;;;;8187138;28;20029;-59
2022/03/11 06:02:07;;;;;;;12.23;6.75;;;;;;;;;;8186091;28;20035;-59
2022/03/11 06:06:07;;;;;;;13.13;7.53;;;;;;;;;;8187410;28;20074;-59
2022/03/11 06:10:07;;;;;;;14.57;8.48;;;;;;;;;;8187100;28;20273;-59
2022/03/11 06:14:08;;;;;;;14.65;7.82;;;;;;;;;;8186222;28;20030;-59
2022/03/11 06:18:08;;;;;;;13.90;7.93;;;;;;;;;;8186684;28;20896;-58
2022/03/11 06:22:08;;;;;;;15.45;9.13;;;;;;;;;;8187088;28;20544;-59
2022/03/11 06:26:08;;;;;;;13.98;9.45;;;;;;;;;;8188322;28;20109;-59
2022/03/11 06:30:09;;;;;;;19.20;9.30;;;;;;;;;;8182101;28;20280;-59
2022/03/11 06:34:09;;;;;;;13.27;9.10;;;;;;;;;;8190250;28;20520;-59
2022/03/11 06:38:10;;;;;;;15.90;8.70;;;;;;;;;;8188007;28;20473;-59
2022/03/11 06:42:10;;;;;;;14.63;8.55;;;;;;;;;;8185303;28;20039;-59
2022/03/11 06:46:10;;;;;;;19.93;8.93;;;;;;;;;;8187599;28;20058;-59
2022/03/11 06:50:10;;;;;;;15.93;9.30;;;;;;;;;;8184186;28;20364;-59
2022/03/11 06:54:11;;;;;;;14.25;9.27;;;;;;;;;;8184387;28;20066;-60
2022/03/11 06:58:11;;;;;;;18.23;9.57;;;;;;;;;;8184221;28;20043;-60
2022/03/11 07:02:11;;;;;;;15.60;10.45;;;;;;;;;;8184621;28;20093;-60
2022/03/11 07:06:11;;;;;;;14.52;10.15;;;;;;;;;;8183840;28;20035;-60
2022/03/11 07:10:12;;;;;;;15.40;10.00;;;;;;;;;;8179216;28;20027;-60
2022/03/11 07:14:12;;;;;;;18.88;10.95;;;;;;;;;;8184381;28;20112;-60
2022/03/11 07:18:13;;;;;;;26.45;12.55;;;;;;;;;;8186025;28;20046;-60
2022/03/11 07:22:13;;;;;;;21.75;12.25;;;;;;;;;;8183436;28;20054;-61
2022/03/11 07:26:13;;;;;;;19.02;11.10;;;;;;;;;;8181398;28;20050;-61
2022/03/11 07:30:13;;;;;;;21.38;10.98;;;;;;;;;;8181864;28;20101;-61
2022/03/11 07:34:14;;;;;;;15.32;10.95;;;;;;;;;;8183048;28;20035;-61
2022/03/11 07:38:14;;;;;;;15.85;10.50;;;;;;;;;;8181510;28;20033;-61
2022/03/11 07:42:14;;;;;;;17.05;11.02;;;;;;;;;;8182862;28;20037;-61
2022/03/11 07:46:15;;;;;;;19.57;11.10;;;;;;;;;;8176393;28;20137;-61
2022/03/11 07:50:15;;;;;;;17.10;11.77;;;;;;;;;;8175215;28;20031;-61
2022/03/11 07:54:16;;;;;;;17.40;10.57;;;;;;;;;;8183071;28;20635;-61
2022/03/11 07:58:17;;;;;;;13.75;10.32;;;;;;;;;;8181565;28;20278;-61
2022/03/11 08:02:17;;;;;;;13.65;10.65;;;;;;;;;;8181932;28;20976;-61
2022/03/11 08:06:17;;;;;;;14.30;11.20;;;;;;;;;;8177652;28;20027;-61
2022/03/11 08:10:18;;;;;;;15.38;11.10;;;;;;;;;;8169749;28;20330;-61
2022/03/11 08:14:18;;;;;;;13.05;10.30;;;;;;;;;;8181828;28;20133;-61
2022/03/11 08:18:19;;;;;;;16.33;10.63;;;;;;;;;;8181446;28;20047;-61
2022/03/11 08:22:19;;;;;;;14.82;10.32;;;;;;;;;;8181469;28;20572;-61
2022/03/11 08:26:19;;;;;;;14.50;9.80;;;;;;;;;;8182002;28;20035;-61
2022/03/11 08:30:20;;;;;;;15.67;10.37;;;;;;;;;;8181037;28;20987;-60
2022/03/11 08:34:20;;;;;;;14.95;10.70;;;;;;;;;;8183992;28;20301;-61
2022/03/11 08:38:21;;;;;;;14.88;10.50;;;;;;;;;;8184204;28;20058;-61
2022/03/11 08:42:21;;;;;;;14.35;10.80;;;;;;;;;;8180642;28;20078;-61
2022/03/11 08:46:21;;;;;;;17.08;11.45;;;;;;;;;;8182520;28;20074;-61
2022/03/11 08:50:21;;;;;;;14.50;11.07;;;;;;;;;;8180508;28;20031;-61
2022/03/11 08:54:22;;;;;;;15.40;11.07;;;;;;;;;;8182842;28;20034;-61
2022/03/11 08:58:22;;;;;;;16.48;11.23;;;;;;;;;;8181998;28;20027;-61
2022/03/11 09:02:23;;;;;;;14.57;11.18;;;;;;;;;;8180553;28;20074;-60
2022/03/11 09:06:24;;;;;;;18.30;11.40;;;;;;;;;;8181706;28;20035;-61
2022/03/11 09:10:24;;;;;;;14.18;10.60;;;;;;;;;;8185473;28;20065;-62
2022/03/11 09:14:24;;;;;;;18.05;10.82;;;;;;;;;;8188386;28;20054;-60
2022/03/11 09:18:25;;;;;;;13.43;10.18;;;;;;;;;;8187960;28;20793;-60
2022/03/11 09:22:25;;;;;;;17.20;10.95;;;;;;;;;;8187131;28;20034;-60
2022/03/11 09:26:25;;;;;;;18.73;11.82;;;;;;;;;;8188573;28;20089;-60
2022/03/11 09:30:25;;;;;;;16.60;10.60;;;;;;;;;;8186999;28;20031;-60
2022/03/11 09:34:26;;;;;;;18.95;11.02;;;;;;;;;;8186750;28;20089;-60
2022/03/11 09:38:26;;;;;;;24.80;13.52;;;;;;;;;;8188552;28;20035;-59
2022/03/11 09:42:26;;;;;;;17.17;11.15;;;;;;;;;;8185571;28;20870;-60
2022/03/11 09:46:26;;;;;;;17.60;11.30;;;;;;;;;;8186946;28;20052;-60
2022/03/11 09:50:27;;;;;;;17.87;11.37;;;;;;;;;;8187250;28;20888;-60
2022/03/11 09:54:27;;;;;;;18.70;12.55;;;;;;;;;;8187282;28;20350;-59
2022/03/11 09:58:27;;;;;;;39.67;19.88;;;;;;;;;;8187931;28;20065;-60
2022/03/11 10:02:28;;;;;;;21.90;11.90;;;;;;;;;;8186286;28;20038;-60
2022/03/11 10:06:38;;;;;;;22.00;11.98;;;;;;;;;;8186332;28;20041;-60
2022/03/11 10:10:38;;;;;;;17.48;10.90;;;;;;;;;;8185528;28;20386;-59
2022/03/11 10:14:39;;;;;;;18.35;11.05;;;;;;;;;;8185545;28;20034;-60
2022/03/11 10:18:40;;;;;;;20.77;12.15;;;;;;;;;;8185283;28;20117;-59
2022/03/11 10:22:41;;;;;;;21.17;11.63;;;;;;;;;;8184208;28;20031;-59
2022/03/11 10:26:42;;;;;;;21.55;10.90;;;;;;;;;;8186569;28;20301;-60
2022/03/11 10:30:43;;;;;;;18.67;11.02;;;;;;;;;;8188226;28;20591;-60
2022/03/11 10:34:43;;;;;;;24.33;12.52;;;;;;;;;;8184981;28;20101;-60
2022/03/11 10:38:46;;;;;;;17.40;11.30;;;;;;;;;;8184995;28;20849;-59
2022/03/11 10:42:46;;;;;;;15.10;10.30;;;;;;;;;;8184644;28;20023;-60
2022/03/11 10:46:46;;;;;;;16.85;10.18;;;;;;;;;;8185438;28;20045;-60
2022/03/11 10:50:46;;;;;;;16.35;9.95;;;;;;;;;;8183774;28;20019;-60
2022/03/11 10:54:46;;;;;;;17.65;10.35;;;;;;;;;;8182877;28;20027;-60
2022/03/11 10:58:47;;;;;;;16.33;9.85;;;;;;;;;;8182787;28;20020;-60
2022/03/11 11:02:48;;;;;;;14.38;9.77;;;;;;;;;;8183244;28;20031;-59
2022/03/11 11:06:48;;;;;;;14.18;9.20;;;;;;;;;;8186337;28;20085;-60
2022/03/11 11:10:49;;;;;;;15.07;9.48;;;;;;;;;;8184743;28;20023;-60
2022/03/11 11:14:49;;;;;;;14.45;8.88;;;;;;;;;;8183916;28;20267;-61
2022/03/11 11:18:51;;;;;;;16.55;8.98;;;;;;;;;;8183713;28;20876;-60
2022/03/11 11:22:53;;;;;;;18.65;9.63;;;;;;;;;;8183521;28;20027;-60
2022/03/11 11:26:54;;;;;;;13.40;8.10;;;;;;;;;;8183703;28;20030;-60
2022/03/11 11:30:56;;;;;;;13.77;8.52;;;;;;;;;;8179872;28;20489;-60
2022/03/11 11:35:16;;;;;;;15.68;8.60;;;;;;;;;;8130717;28;20049;-60
2022/03/11 11:39:16;;;;;;;14.85;8.85;;;;;;;;;;8172992;28;20588;-60
2022/03/11 11:43:25;;;;;;;16.27;8.63;;;;;;;;;;8182569;28;20026;-60
2022/03/11 11:47:31;;;;;;;15.77;8.57;;;;;;;;;;8181486;28;20078;-60
2022/03/11 11:51:32;;;;;;;12.82;8.80;;;;;;;;;;8182625;28;20038;-60
2022/03/11 11:55:39;;;;;;;18.20;8.70;;;;;;;;;;8181276;28;20324;-60
2022/03/11 11:59:41;;;;;;;14.98;9.10;;;;;;;;;;8184074;28;20031;-60
2022/03/11 12:03:48;;;;;;;14.88;8.63;;;;;;;;;;8182364;28;20133;-60
2022/03/11 12:07:49;;;;;;;22.42;9.65;;;;;;;;;;8180857;28;20019;-60
2022/03/11 12:11:49;;;;;;;18.00;9.93;;;;;;;;;;8183095;28;20035;-60
2022/03/11 12:15:49;;;;;;;17.27;8.63;;;;;;;;;;8180306;28;20269;-60
2022/03/11 12:19:49;;;;;;;16.80;9.48;;;;;;;;;;8182155;28;20118;-60
2022/03/11 12:23:50;;;;;;;16.77;9.95;;;;;;;;;;8182639;28;20360;-60
2022/03/11 12:27:58;;;;;;;21.27;9.97;;;;;;;;;;8182408;28;20045;-60
2022/03/11 12:31:58;;;;;;;17.90;10.40;;;;;;;;;;8180248;28;20948;-60
2022/03/11 12:35:59;;;;;;;18.67;9.85;;;;;;;;;;8183861;28;20053;-60
2022/03/11 12:40:01;;;;;;;17.25;10.02;;;;;;;;;;8180719;28;21081;-60
2022/03/11 12:44:02;;;;;;;15.63;10.65;;;;;;;;;;8183508;28;20026;-60
2022/03/11 12:48:03;;;;;;;14.82;9.50;;;;;;;;;;8186718;28;20062;-60
2022/03/11 12:52:16;;;;;;;20.60;9.68;;;;;;;;;;8187191;28;20963;-60
2022/03/11 12:56:17;;;;;;;15.43;9.73;;;;;;;;;;8187501;28;20937;-60
2022/03/11 13:00:21;;;;;;;17.17;10.00;;;;;;;;;;8189210;28;20035;-60
2022/03/11 13:04:23;;;;;;;17.50;9.38;;;;;;;;;;8189622;28;20031;-60
2022/03/11 13:08:23;;;;;;;15.82;9.93;;;;;;;;;;8187573;28;20503;-60
2022/03/11 13:12:24;;;;;;;14.90;9.13;;;;;;;;;;8188143;28;20117;-60
2022/03/11 13:16:24;;;;;;;14.52;9.73;;;;;;;;;;8186062;28;20229;-60
2022/03/11 13:20:35;;;;;;;16.42;9.50;;;;;;;;;;8188732;28;20030;-60
2022/03/11 13:24:35;;;;;;;17.35;9.85;;;;;;;;;;8185115;28;20637;-60
2022/03/11 13:28:37;;;;;;;15.25;9.00;;;;;;;;;;8188977;28;20027;-60
2022/03/11 13:32:38;;;;;;;18.85;9.57;;;;;;;;;;8186438;28;20046;-60
2022/03/11 13:36:39;;;;;;;16.05;9.23;;;;;;;;;;8185946;28;20034;-60
2022/03/11 13:40:49;;;;;;;18.00;10.20;;;;;;;;;;8185955;28;20077;-60
2022/03/11 13:45:03;;;;;;;17.23;10.30;;;;;;;;;;8186464;28;20030;-60
2022/03/11 13:49:04;;;;;;;20.75;9.73;;;;;;;;;;8185214;28;20054;-60
2022/03/11 13:53:05;;;;;;;13.88;9.65;;;;;;;;;;8185690;28;20587;-60
2022/03/11 13:57:15;;;;;;;15.35;10.05;;;;;;;;;;8184737;28;20035;-60
2022/03/11 14:01:16;;;;;;;15.23;9.60;;;;;;;;;;8188012;28;20042;-60
2022/03/11 14:05:21;;;;;;;18.90;9.52;;;;;;;;;;8186000;28;20027;-60
2022/03/11 14:09:25;;;;;;;18.20;9.98;;;;;;;;;;8184827;28;20023;-59
2022/03/11 14:13:27;;;;;;;20.00;9.52;;;;;;;;;;8182706;28;20023;-60
2022/03/11 14:17:31;;;;;;;13.77;8.77;;;;;;;;;;8183359;28;20789;-61
2022/03/11 14:21:31;;;;;;;14.40;9.43;;;;;;;;;;8182645;28;20026;-59
2022/03/11 14:25:32;;;;;;;16.55;9.90;;;;;;;;;;8183409;28;20031;-59
2022/03/11 14:29:32;;;;;;;17.83;9.70;;;;;;;;;;8180789;28;20035;-59
2022/03/11 14:33:32;;;;;;;15.35;9.60;;;;;;;;;;8182534;28;20283;-59
2022/03/11 14:37:33;;;;;;;17.75;8.95;;;;;;;;;;8181169;28;20034;-60
2022/03/11 14:41:35;;;;;;;12.40;8.63;;;;;;;;;;8180334;28;20534;-60
2022/03/11 14:45:35;;;;;;;14.02;9.20;;;;;;;;;;8181157;28;20048;-60
2022/03/11 14:49:36;;;;;;;15.70;9.38;;;;;;;;;;8181838;28;20066;-60
2022/03/11 14:53:36;;;;;;;15.48;9.20;;;;;;;;;;8180131;28;20027;-60
2022/03/11 14:57:38;;;;;;;14.20;9.00;;;;;;;;;;8181930;28;20026;-60
2022/03/11 15:01:38;;;;;;;18.85;9.95;;;;;;;;;;8181056;28;20043;-61
2022/03/11 15:05:38;;;;;;;15.88;8.15;;;;;;;;;;8182909;28;20030;-59
2022/03/11 15:09:39;;;;;;;16.63;9.82;;;;;;;;;;8182159;28;20027;-59
2022/03/11 15:13:39;;;;;;;14.35;9.10;;;;;;;;;;8182915;28;20336;-59
2022/03/11 15:17:39;;;;;;;16.08;8.55;;;;;;;;;;8182461;28;20113;-59
2022/03/11 15:21:40;;;;;;;14.07;8.23;;;;;;;;;;8184167;28;20030;-60
2022/03/11 15:25:40;;;;;;;13.20;8.27;;;;;;;;;;8182476;28;20029;-59
2022/03/11 15:29:40;;;;;;;12.40;8.83;;;;;;;;;;8181966;28;20567;-59
2022/03/11 15:33:40;;;;;;;13.05;8.45;;;;;;;;;;8182600;28;20369;-59
2022/03/11 15:37:41;;;;;;;12.02;8.63;;;;;;;;;;8180820;28;20031;-60
2022/03/11 15:41:41;;;;;;;15.37;9.57;;;;;;;;;;8183414;28;20035;-60
2022/03/11 15:45:44;;;;;;;14.73;8.73;;;;;;;;;;8182624;28;20174;-60
2022/03/11 15:49:44;;;;;;;12.17;8.67;;;;;;;;;;8180115;28;20090;-60
2022/03/11 15:53:46;;;;;;;13.13;8.23;;;;;;;;;;8180680;28;20137;-60
2022/03/11 15:57:48;;;;;;;17.38;9.05;;;;;;;;;;8180969;28;20034;-60
2022/03/11 16:01:48;;;;;;;14.20;9.60;;;;;;;;;;8179936;28;20035;-59
2022/03/11 16:05:48;;;;;;;13.55;9.38;;;;;;;;;;8183126;28;20137;-59
2022/03/11 16:09:50;;;;;;;16.20;9.13;;;;;;;;;;8181117;28;20102;-59
2022/03/11 16:13:50;;;;;;;24.55;10.55;;;;;;;;;;8181254;28;20389;-59
2022/03/11 16:17:51;;;;;;;17.50;10.52;;;;;;;;;;8183531;28;20039;-59
2022/03/11 16:21:51;;;;;;;16.05;9.48;;;;;;;;;;8182832;28;20038;-59
2022/03/11 16:25:53;;;;;;;15.40;9.63;;;;;;;;;;8181070;28;20058;-59
2022/03/11 16:29:54;;;;;;;14.50;9.23;;;;;;;;;;8181828;28;20014;-60
2022/03/11 16:33:55;;;;;;;17.25;10.10;;;;;;;;;;8175107;28;20211;-59
2022/03/11 16:37:56;;;;;;;20.52;11.43;;;;;;;;;;8176867;28;20149;-59
2022/03/11 16:41:57;;;;;;;18.52;10.63;;;;;;;;;;8150640;28;20058;-60
2022/03/11 16:45:57;;;;;;;19.92;12.00;;;;;;;;;;8151856;28;20039;-59
2022/03/11 16:49:58;;;;;;;17.52;10.60;;;;;;;;;;8178182;28;20025;-59
2022/03/11 16:53:58;;;;;;;17.23;11.45;;;;;;;;;;8178973;28;20137;-60
2022/03/11 16:57:59;;;;;;;16.80;10.02;;;;;;;;;;8182053;28;20027;-60
2022/03/11 17:02:00;;;;;;;17.25;10.38;;;;;;;;;;8177774;28;20058;-60
2022/03/11 17:06:00;;;;;;;19.65;10.02;;;;;;;;;;8182093;28;20023;-59
2022/03/11 17:10:00;;;;;;;22.88;9.88;;;;;;;;;;8180866;28;20031;-59
2022/03/11 17:14:00;;;;;;;16.25;9.55;;;;;;;;;;8182471;28;20470;-59
2022/03/11 17:18:01;;;;;;;14.23;9.20;;;;;;;;;;8182877;28;20746;-61
2022/03/11 17:22:01;;;;;;;16.80;9.63;;;;;;;;;;8187616;28;20057;-59
2022/03/11 17:26:01;;;;;;;17.30;9.90;;;;;;;;;;8192883;28;20031;-60
2022/03/11 17:30:02;;;;;;;17.38;10.23;;;;;;;;;;8195066;28;20105;-61
2022/03/11 17:34:04;;;;;;;24.42;13.85;;;;;;;;;;8150781;28;20151;-59
2022/03/11 17:38:04;;;;;;;54.47;27.30;;;;;;;;;;8181479;28;20058;-59
2022/03/11 17:42:05;;;;;;;33.15;16.17;;;;;;;;;;8187276;28;20587;-59
2022/03/11 17:46:06;;;;;;;25.27;11.77;;;;;;;;;;8184915;28;20049;-59
2022/03/11 17:50:06;;;;;;;27.33;12.40;;;;;;;;;;8162764;28;20062;-60
2022/03/11 17:54:08;;;;;;;30.60;13.13;;;;;;;;;;8139505;28;20706;-59
2022/03/11 17:58:11;;;;;;;28.25;14.55;;;;;;;;;;8134339;28;20391;-60
2022/03/11 18:02:12;;;;;;;34.80;15.83;;;;;;;;;;8137467;28;20030;-60
2022/03/11 18:06:13;;;;;;;45.75;16.67;;;;;;;;;;8146885;28;20042;-59
2022/03/11 18:10:14;;;;;;;34.03;12.65;;;;;;;;;;8148393;28;20058;-59
2022/03/11 18:14:14;;;;;;;27.85;12.75;;;;;;;;;;8139247;28;20193;-60
2022/03/11 18:18:15;;;;;;;20.55;9.63;;;;;;;;;;8161931;28;20032;-59
2022/03/11 18:22:15;;;;;;;15.98;8.68;;;;;;;;;;8179364;28;20405;-59
2022/03/11 18:26:16;;;;;;;21.92;9.10;;;;;;;;;;8182203;28;20033;-59
2022/03/11 18:30:17;;;;;;;15.40;9.88;;;;;;;;;;8181275;28;20137;-59
2022/03/11 18:34:18;;;;;;;22.92;10.05;;;;;;;;;;8179121;28;20034;-59
2022/03/11 18:38:19;;;;;;;21.50;12.57;;;;;;;;;;8182777;28;20030;-59
2022/03/11 18:42:20;;;;;;;21.02;11.00;;;;;;;;;;8183541;28;20817;-59
2022/03/11 18:46:20;;;;;;;22.02;11.13;;;;;;;;;;8181137;28;20058;-59
2022/03/11 18:50:20;;;;;;;18.00;10.93;;;;;;;;;;8182597;28;20486;-59
2022/03/11 18:54:20;;;;;;;20.80;10.50;;;;;;;;;;8182483;28;20037;-58
2022/03/11 18:58:21;;;;;;;21.70;10.63;;;;;;;;;;8180522;28;20379;-58
2022/03/11 19:02:21;;;;;;;16.27;9.10;;;;;;;;;;8180671;28;20658;-59
2022/03/11 19:06:21;;;;;;;15.82;10.35;;;;;;;;;;8179991;28;20559;-59
2022/03/11 19:10:22;;;;;;;18.15;9.32;;;;;;;;;;8181923;28;20023;-59
2022/03/11 19:14:23;;;;;;;15.85;9.18;;;;;;;;;;8184485;28;20073;-59
2022/03/11 19:18:24;;;;;;;21.17;10.88;;;;;;;;;;8183822;28;20041;-59
2022/03/11 19:22:25;;;;;;;27.17;13.63;;;;;;;;;;8184491;28;20027;-60
2022/03/11 19:26:26;;;;;;;34.67;18.30;;;;;;;;;;8188377;28;20401;-59
2022/03/11 19:30:27;;;;;;;22.10;12.25;;;;;;;;;;8180216;28;20066;-60
2022/03/11 19:34:31;;;;;;;32.83;16.15;;;;;;;;;;8181768;28;20022;-60
2022/03/11 19:38:31;;;;;;;23.08;12.52;;;;;;;;;;8182213;28;20050;-59
2022/03/11 19:42:33;;;;;;;21.27;13.80;;;;;;;;;;8193157;28;20125;-60
2022/03/11 19:46:34;;;;;;;23.65;13.27;;;;;;;;;;8190021;28;20065;-60
2022/03/11 19:50:34;;;;;;;20.20;11.98;;;;;;;;;;8189388;28;20488;-60
2022/03/11 19:54:35;;;;;;;17.05;11.25;;;;;;;;;;8183578;28;20483;-60
2022/03/11 19:58:36;;;;;;;15.02;9.15;;;;;;;;;;8181430;28;20710;-60
2022/03/11 20:02:36;;;;;;;15.25;9.45;;;;;;;;;;8181054;28;20096;-61
2022/03/11 20:06:37;;;;;;;16.65;8.63;;;;;;;;;;8181311;28;20030;-60
2022/03/11 20:10:43;;;;;;;18.77;8.93;;;;;;;;;;8181571;28;20077;-60
2022/03/11 20:14:43;;;;;;;14.23;9.07;;;;;;;;;;8181577;28;20613;-60
2022/03/11 20:18:43;;;;;;;16.55;9.45;;;;;;;;;;8190610;28;20174;-60
2022/03/11 20:22:44;;;;;;;15.75;9.63;;;;;;;;;;8190351;28;20094;-61
2022/03/11 20:26:44;;;;;;;18.40;10.43;;;;;;;;;;8182072;28;20023;-60
2022/03/11 20:30:44;;;;;;;17.45;10.07;;;;;;;;;;8182898;28;20062;-59
2022/03/11 20:34:45;;;;;;;16.02;10.00;;;;;;;;;;8187357;28;20124;-59
2022/03/11 20:38:46;;;;;;;21.40;9.50;;;;;;;;;;8183153;28;20062;-59
2022/03/11 20:42:47;;;;;;;16.55;8.65;;;;;;;;;;8182822;28;20026;-59
2022/03/11 20:46:47;;;;;;;13.35;7.88;;;;;;;;;;8178367;28;20132;-59
2022/03/11 20:50:49;;;;;;;13.50;8.40;;;;;;;;;;8181107;28;20027;-59
2022/03/11 20:54:49;;;;;;;13.13;7.78;;;;;;;;;;8180899;28;20135;-59
2022/03/11 20:58:51;;;;;;;15.20;7.65;;;;;;;;;;8180725;28;21038;-59
2022/03/11 21:02:51;;;;;;;11.05;7.15;;;;;;;;;;8179037;28;20046;-59
2022/03/11 21:06:51;;;;;;;12.40;7.10;;;;;;;;;;8184357;28;20173;-59
2022/03/11 21:10:53;;;;;;;11.65;6.82;;;;;;;;;;8184106;28;20031;-60
2022/03/11 21:14:54;;;;;;;16.02;7.10;;;;;;;;;;8188189;28;20711;-60
2022/03/11 21:18:55;;;;;;;15.75;6.60;;;;;;;;;;8178186;28;20153;-59
2022/03/11 21:22:55;;;;;;;13.60;6.95;;;;;;;;;;8184169;28;20042;-60
2022/03/11 21:26:55;;;;;;;13.73;6.97;;;;;;;;;;8188236;28;20014;-60
2022/03/11 21:30:55;;;;;;;9.45;6.60;;;;;;;;;;8185126;28;20724;-60
2022/03/11 21:34:55;;;;;;;11.60;6.03;;;;;;;;;;8184902;28;20034;-60
2022/03/11 21:38:56;;;;;;;11.32;6.05;;;;;;;;;;8186417;28;20278;-60
2022/03/11 21:42:56;;;;;;;11.00;6.28;;;;;;;;;;8185493;28;20038;-60
2022/03/11 21:46:56;;;;;;;10.32;6.40;;;;;;;;;;8186341;28;20172;-60
2022/03/11 21:50:56;;;;;;;12.30;6.35;;;;;;;;;;8183774;28;20037;-60
2022/03/11 21:54:58;;;;;;;11.48;6.70;;;;;;;;;;8180075;28;20037;-59
2022/03/11 21:58:59;;;;;;;14.73;8.52;;;;;;;;;;8141483;28;20022;-59
2022/03/11 22:03:00;;;;;;;13.98;7.45;;;;;;;;;;8140104;28;20035;-60
2022/03/11 22:07:00;;;;;;;8.52;6.15;;;;;;;;;;8142341;28;20507;-59
2022/03/11 22:11:01;;;;;;;15.50;7.15;;;;;;;;;;8141196;28;20375;-59
2022/03/11 22:15:03;;;;;;;11.00;6.90;;;;;;;;;;8145671;28;20054;-60
2022/03/11 22:19:08;;;;;;;11.68;6.82;;;;;;;;;;8143490;28;20070;-60
2022/03/11 22:23:08;;;;;;;11.27;5.95;;;;;;;;;;8143152;28;20027;-59
2022/03/11 22:27:09;;;;;;;19.00;9.13;;;;;;;;;;8143607;28;20051;-60
2022/03/11 22:31:09;;;;;;;13.10;7.45;;;;;;;;;;8139245;28;20507;-60
2022/03/11 22:35:09;;;;;;;15.05;7.68;;;;;;;;;;8154845;28;21082;-60
2022/03/11 22:39:10;;;;;;;16.23;9.10;;;;;;;;;;8201241;28;20827;-60
2022/03/11 22:43:10;;;;;;;15.73;8.00;;;;;;;;;;8156103;28;22827;-60
2022/03/11 22:47:11;;;;;;;15.80;8.15;;;;;;;;;;8157272;28;20125;-60
2022/03/11 22:51:12;;;;;;;16.27;7.60;;;;;;;;;;8186624;28;20745;-60
2022/03/11 22:55:12;;;;;;;13.02;7.07;;;;;;;;;;8187375;28;20027;-60
2022/03/11 22:59:13;;;;;;;11.50;5.88;;;;;;;;;;8184823;28;20062;-60
2022/03/11 23:03:18;;;;;;;11.30;6.50;;;;;;;;;;8184011;28;20039;-60
2022/03/11 23:11:37;;;;;;;19.63;7.82;;;;;;;;;;8182718;28;20854;-60
2022/03/11 23:15:39;;;;;;;25.98;11.63;;;;;;;;;;8187528;28;20635;-60
2022/03/11 23:19:40;;;;;;;20.25;7.45;;;;;;;;;;8184349;28;20090;-60
2022/03/11 23:23:40;;;;;;;14.80;6.65;;;;;;;;;;8187322;28;20829;-60
2022/03/11 23:27:40;;;;;;;11.82;6.72;;;;;;;;;;8187067;28;20795;-60
2022/03/11 23:31:40;;;;;;;12.20;6.88;;;;;;;;;;8182603;28;20117;-60
2022/03/11 23:35:41;;;;;;;19.05;6.50;;;;;;;;;;8185176;28;20031;-60
2022/03/11 23:39:41;;;;;;;11.57;6.33;;;;;;;;;;8185861;28;20047;-60